Time;durP1;ratioP1;P1;durP2;ratioP2;P2;SDS_P1;SDS_P2;PMS_P1;PMS_P2;Temp;Humidity;BMP_temperature;BMP_pressure;BME280_temperature;BME280_humidity;BME280_pressure;Samples;Min_cycle;Max_cycle;Signal;HPM_P1;HPM_P2
2023/08/20 00:01:44;;;;;;;14.20;7.95;;;;;;;17.59;73.29;97006.75;6202310;28;20046;-69
2023/08/20 00:04:48;;;;;;;10.05;7.07;;;;;;;17.50;73.69;97011.94;6201809;28;20049;-69
2023/08/20 00:07:55;;;;;;;12.73;7.85;;;;;;;17.43;74.06;97018.78;6220597;28;20038;-70
2023/08/20 00:11:01;;;;;;;13.43;8.50;;;;;;;17.34;74.35;97014.28;6223882;28;20049;-69
2023/08/20 00:14:02;;;;;;;14.63;8.50;;;;;;;17.30;74.28;97020.88;6224282;28;20072;-69
2023/08/20 00:17:08;;;;;;;19.95;9.40;;;;;;;17.26;74.61;97019.47;6223547;28;20509;-70
2023/08/20 00:20:12;;;;;;;20.98;9.57;;;;;;;17.26;74.80;97019.47;6223066;28;20475;-70
2023/08/20 00:23:17;;;;;;;20.60;9.88;;;;;;;17.30;74.82;97020.88;6206326;28;20050;-71
2023/08/20 00:26:21;;;;;;;19.65;9.88;;;;;;;17.36;74.80;97015.00;6222984;28;20307;-71
2023/08/20 00:29:25;;;;;;;15.88;9.20;;;;;;;17.42;74.56;97014.44;6223632;28;20049;-70
2023/08/20 00:32:29;;;;;;;16.48;9.70;;;;;;;17.46;74.17;97007.84;6223797;28;20050;-70
2023/08/20 00:35:32;;;;;;;18.73;9.15;;;;;;;17.51;74.24;97018.94;6222935;28;20079;-71
2023/08/20 00:38:34;;;;;;;16.58;9.25;;;;;;;17.51;73.97;97016.28;6205838;28;20038;-70
2023/08/20 00:41:35;;;;;;;16.75;8.90;;;;;;;17.49;74.20;97020.91;6222871;28;20077;-69
2023/08/20 00:44:37;;;;;;;14.82;9.25;;;;;;;17.46;73.88;97021.16;6223211;28;20049;-70
2023/08/20 00:47:40;;;;;;;14.32;9.38;;;;;;;17.48;73.89;97029.84;6222946;28;20045;-70
2023/08/20 00:50:48;;;;;;;14.52;7.88;;;;;;;17.34;74.12;97024.94;6223099;28;20042;-69
2023/08/20 00:53:52;;;;;;;13.25;7.95;;;;;;;17.30;74.28;97036.84;6222665;28;20064;-70
2023/08/20 00:56:59;;;;;;;13.57;8.43;;;;;;;17.17;74.68;97037.06;6222334;28;20157;-70
2023/08/20 01:00:10;;;;;;;17.73;8.40;;;;;;;17.09;74.90;97034.25;6222946;28;20417;-69
2023/08/20 01:03:16;;;;;;;12.25;8.57;;;;;;;17.01;75.02;97032.31;6237913;28;20050;-69
2023/08/20 01:06:28;;;;;;;12.52;7.53;;;;;;;16.95;75.25;97032.81;6205983;28;20050;-71
2023/08/20 01:09:51;;;;;;;11.75;7.97;;;;;;;16.90;75.38;97027.09;6221555;28;20053;-71
2023/08/20 01:12:53;;;;;;;13.00;8.25;;;;;;;16.79;75.66;97032.50;6222661;28;20417;-70
2023/08/20 01:15:57;;;;;;;14.18;8.32;;;;;;;16.74;75.77;97030.22;6222402;28;20060;-70
2023/08/20 01:19:00;;;;;;;19.17;9.38;;;;;;;16.74;75.79;97024.06;6220170;28;20050;-69
2023/08/20 01:22:23;;;;;;;18.73;9.73;;;;;;;16.76;76.04;97024.78;6221939;28;20046;-70
2023/08/20 01:25:30;;;;;;;13.75;8.77;;;;;;;16.74;75.74;97021.41;6222144;28;20054;-70
2023/08/20 01:28:31;;;;;;;14.88;9.18;;;;;;;16.71;75.92;97025.16;6221842;28;20157;-71
2023/08/20 01:31:33;;;;;;;19.83;9.23;;;;;;;16.71;75.85;97014.53;6221945;28;20046;-70
2023/08/20 01:34:40;;;;;;;19.00;8.88;;;;;;;16.73;75.63;97027.66;6222031;28;20417;-70
2023/08/20 01:37:41;;;;;;;12.73;8.13;;;;;;;16.75;75.74;97031.03;6220999;28;20054;-69
2023/08/20 01:40:48;;;;;;;15.75;8.75;;;;;;;16.70;75.24;97033.25;6222042;28;20038;-70
2023/08/20 01:43:52;;;;;;;11.80;8.27;;;;;;;16.75;75.30;97046.97;6204442;28;20125;-70
2023/08/20 01:46:56;;;;;;;14.98;8.80;;;;;;;16.69;75.21;97031.59;6221683;28;20048;-70
2023/08/20 01:50:00;;;;;;;13.55;7.63;;;;;;;16.81;75.06;97039.38;6204346;28;20041;-70
2023/08/20 01:53:05;;;;;;;20.98;8.75;;;;;;;16.81;75.11;97046.47;6222455;28;20045;-70
2023/08/20 01:56:12;;;;;;;15.43;8.88;;;;;;;16.87;74.97;97051.28;6220476;28;20484;-69
2023/08/20 01:59:18;;;;;;;17.05;7.95;;;;;;;16.92;74.50;97043.72;6221454;28;20037;-70
2023/08/20 02:02:22;;;;;;;14.65;7.93;;;;;;;16.97;74.45;97046.81;6221342;28;20037;-70
2023/08/20 02:05:25;;;;;;;13.50;6.88;;;;;;;17.03;73.83;97045.44;6221455;28;20132;-69
2023/08/20 02:08:29;;;;;;;19.75;7.75;;;;;;;17.06;73.85;97055.81;6221344;28;20449;-70
2023/08/20 02:11:35;;;;;;;14.65;7.78;;;;;;;16.92;73.38;97027.78;6220753;28;20140;-70
2023/08/20 02:14:40;;;;;;;10.90;7.35;;;;;;;17.05;73.28;97049.66;6221231;28;20045;-69
2023/08/20 02:17:48;;;;;;;10.95;8.05;;;;;;;17.24;73.03;97054.19;6221839;28;20050;-69
2023/08/20 02:20:51;;;;;;;12.75;7.47;;;;;;;17.47;72.37;97065.44;6221395;28;20432;-70
2023/08/20 02:23:54;;;;;;;12.55;7.25;;;;;;;17.67;71.68;97065.44;6220800;28;20046;-70
2023/08/20 02:26:56;;;;;;;;;;;;;;;17.91;70.92;97068.56;6220405;28;20056;-69
2023/08/20 02:30:02;;;;;;;13.02;7.47;;;;;;;18.20;69.66;97062.38;6221011;28;19925;-69
2023/08/20 02:33:07;;;;;;;14.43;6.45;;;;;;;18.49;68.89;97072.16;6220764;28;20105;-69
2023/08/20 02:36:11;;;;;;;12.23;6.30;;;;;;;18.73;68.14;97061.81;6220406;28;20064;-69
2023/08/20 02:39:16;;;;;;;13.50;7.93;;;;;;;18.86;66.69;97063.38;6219879;28;20421;-69
2023/08/20 02:42:25;;;;;;;8.75;6.55;;;;;;;18.87;66.87;97068.53;6220707;28;20034;-71
2023/08/20 02:45:31;;;;;;;8.60;6.60;;;;;;;18.86;66.49;97074.03;6220564;28;20409;-70
2023/08/20 02:48:35;;;;;;;11.82;6.75;;;;;;;18.95;66.58;97073.16;6220451;28;20038;-69
2023/08/20 02:51:45;;;;;;;11.27;6.82;;;;;;;19.04;65.66;97067.75;6220451;28;20045;-69
2023/08/20 02:54:46;;;;;;;11.88;7.38;;;;;;;19.21;65.47;97068.78;6202265;28;20050;-69
2023/08/20 02:57:49;;;;;;;14.38;8.73;;;;;;;19.37;65.26;97067.31;6219930;28;20046;-71
2023/08/20 03:00:53;;;;;;;13.40;8.68;;;;;;;19.50;64.73;97065.97;6219548;28;20057;-70
2023/08/20 03:03:57;;;;;;;15.88;8.27;;;;;;;19.76;63.51;97062.59;6219282;28;20050;-70
2023/08/20 03:07:01;;;;;;;14.15;9.02;;;;;;;19.92;62.72;97059.22;6220551;28;20038;-71
2023/08/20 03:10:02;;;;;;;12.50;7.78;;;;;;;20.09;62.58;97058.38;6219900;28;20054;-70
2023/08/20 03:13:07;;;;;;;14.32;8.48;;;;;;;20.26;61.85;97063.84;6220177;28;20501;-70
2023/08/20 03:16:10;;;;;;;15.05;9.10;;;;;;;20.46;60.93;97068.00;6219598;28;20535;-71
2023/08/20 03:19:18;;;;;;;14.85;9.45;;;;;;;20.56;60.69;97066.09;6219758;28;20449;-70
2023/08/20 03:22:22;;;;;;;13.55;7.95;;;;;;;20.48;60.44;97052.66;6218728;28;20148;-70
2023/08/20 03:25:27;;;;;;;12.40;8.48;;;;;;;20.44;60.43;97064.66;6219856;28;20046;-71
2023/08/20 03:28:29;;;;;;;12.67;7.77;;;;;;;20.45;60.75;97063.66;6219287;28;20140;-71
2023/08/20 03:31:35;;;;;;;12.38;8.15;;;;;;;20.45;60.59;97062.81;6218949;28;20557;-70
2023/08/20 03:34:36;;;;;;;14.27;7.68;;;;;;;20.56;59.87;97066.09;6202491;28;20049;-70
2023/08/20 03:37:41;;;;;;;12.93;7.47;;;;;;;20.75;59.87;97064.19;6219757;28;20037;-70
2023/08/20 03:40:45;;;;;;;12.05;8.70;;;;;;;20.76;59.42;97066.72;6219622;28;20038;-70
2023/08/20 03:43:46;;;;;;;14.52;9.45;;;;;;;20.71;59.37;97073.53;6204290;28;20054;-71
2023/08/20 03:46:50;;;;;;;16.73;9.90;;;;;;;20.77;59.17;97080.94;6224886;28;20041;-70
2023/08/20 03:49:54;;;;;;;17.92;10.35;;;;;;;20.95;58.92;97079.03;6224385;28;20184;-71
2023/08/20 03:53:01;;;;;;;17.67;11.02;;;;;;;21.10;58.43;97073.91;6224004;28;20053;-71
2023/08/20 03:56:02;;;;;;;16.63;10.55;;;;;;;21.14;58.46;97079.78;6223357;28;20497;-70
2023/08/20 03:59:06;;;;;;;17.88;10.85;;;;;;;21.22;58.34;97077.97;6222926;28;20547;-70
2023/08/20 04:02:10;;;;;;;14.95;8.77;;;;;;;21.30;58.14;97083.38;6224038;28;20528;-70
2023/08/20 04:05:16;;;;;;;13.70;8.60;;;;;;;21.32;58.25;97077.03;6224012;28;20452;-69
2023/08/20 04:08:18;;;;;;;11.65;8.23;;;;;;;21.42;57.97;97088.44;6222900;28;20045;-69
2023/08/20 04:11:19;;;;;;;15.80;9.38;;;;;;;21.52;57.61;97089.16;6223331;28;20057;-69
2023/08/20 04:14:25;;;;;;;13.60;9.35;;;;;;;21.55;57.02;97088.00;6223850;28;20416;-70
2023/08/20 04:17:27;;;;;;;15.35;10.05;;;;;;;21.34;57.52;97091.91;6223358;28;20068;-71
2023/08/20 04:20:31;;;;;;;15.02;9.15;;;;;;;21.21;57.91;97096.88;6223968;28;20053;-71
2023/08/20 04:23:32;;;;;;;15.13;9.30;;;;;;;21.13;58.00;97092.31;6222879;28;20045;-72
2023/08/20 04:26:36;;;;;;;16.48;9.77;;;;;;;20.97;58.76;97086.88;6221933;28;20046;-69
2023/08/20 04:29:41;;;;;;;15.25;10.32;;;;;;;20.77;59.15;97100.47;6222572;28;20056;-70
2023/08/20 04:32:44;;;;;;;14.70;9.70;;;;;;;20.65;59.57;97092.91;6222346;28;20188;-70
2023/08/20 04:35:46;;;;;;;11.68;8.57;;;;;;;20.52;59.80;97083.44;6181836;28;20045;-70
2023/08/20 04:38:47;;;;;;;13.80;9.57;;;;;;;20.47;60.05;97093.75;6196919;28;20185;-70
2023/08/20 04:41:52;;;;;;;16.98;8.85;;;;;;;20.64;59.43;97094.72;6198462;28;20153;-69
2023/08/20 04:44:58;;;;;;;17.83;10.35;;;;;;;20.83;58.84;97086.50;6198830;28;20038;-71
2023/08/20 04:48:02;;;;;;;16.98;10.43;;;;;;;20.99;58.59;97088.41;6198692;28;20045;-70
2023/08/20 04:51:07;;;;;;;14.73;9.32;;;;;;;20.98;58.45;97085.91;6198959;28;20506;-71
2023/08/20 04:54:15;;;;;;;15.07;8.48;;;;;;;20.96;58.36;97094.06;6197903;28;20050;-69
2023/08/20 04:57:16;;;;;;;14.57;9.18;;;;;;;21.03;58.28;97083.56;6198155;28;20085;-69
2023/08/20 05:00:24;;;;;;;17.30;8.95;;;;;;;21.25;57.86;97084.84;6197508;28;20069;-71
2023/08/20 05:03:28;;;;;;;16.75;9.50;;;;;;;21.47;57.43;97081.63;6198266;28;20042;-70
2023/08/20 05:06:32;;;;;;;16.88;8.63;;;;;;;21.71;56.75;97088.03;6198370;28;20045;-70
2023/08/20 05:09:38;;;;;;;13.88;8.65;;;;;;;21.92;55.87;97091.09;6197180;28;20498;-71
2023/08/20 05:12:39;;;;;;;13.25;7.72;;;;;;;22.24;55.12;97081.44;6197144;28;20050;-69
2023/08/20 05:15:44;;;;;;;13.70;9.25;;;;;;;22.54;54.11;97079.09;6198134;28;20532;-70
2023/08/20 05:18:48;;;;;;;11.77;9.63;;;;;;;22.92;53.61;97082.00;6195811;28;20054;-70
2023/08/20 05:21:49;;;;;;;15.98;9.38;;;;;;;23.43;52.17;97086.03;6197486;28;20097;-69
2023/08/20 05:24:51;;;;;;;13.10;8.10;;;;;;;23.76;51.61;97080.53;6196917;28;20042;-70
2023/08/20 05:28:03;;;;;;;12.63;9.57;;;;;;;24.13;50.45;97082.47;6197176;28;20189;-69
2023/08/20 05:31:10;;;;;;;18.33;11.63;;;;;;;24.80;49.22;97084.44;6196389;28;20046;-71
2023/08/20 05:34:16;;;;;;;19.55;12.57;;;;;;;25.53;47.65;97084.63;6197517;28;20050;-70
2023/08/20 05:37:17;;;;;;;18.23;12.20;;;;;;;26.50;45.72;97078.84;6197454;28;20038;-71
2023/08/20 05:40:21;;;;;;;17.05;10.85;;;;;;;27.05;43.49;97084.41;6197618;28;20050;-70
2023/08/20 05:43:28;;;;;;;22.00;13.75;;;;;;;27.19;43.19;97079.97;6197320;28;20042;-70
2023/08/20 05:46:34;;;;;;;22.83;13.60;;;;;;;29.19;40.10;97075.78;6197364;28;20050;-70
2023/08/20 05:49:39;;;;;;;15.10;11.02;;;;;;;32.00;34.65;97082.38;6197193;28;20556;-70
2023/08/20 05:52:42;;;;;;;16.38;12.20;;;;;;;31.74;34.74;97073.50;6179491;28;20548;-70
2023/08/20 05:55:49;;;;;;;16.10;11.52;;;;;;;31.67;34.78;97077.34;6197087;28;20043;-70
2023/08/20 05:58:53;;;;;;;19.08;13.45;;;;;;;32.04;34.09;97071.84;6197125;28;20042;-69
2023/08/20 06:01:57;;;;;;;23.33;14.63;;;;;;;33.07;32.56;97076.13;6198452;28;20068;-69
2023/08/20 06:05:04;;;;;;;19.92;11.95;;;;;;;32.91;32.26;97074.91;6178812;28;20043;-70
2023/08/20 06:08:06;;;;;;;16.85;12.02;;;;;;;34.61;30.32;97069.94;6195095;28;20042;-70
2023/08/20 06:11:10;;;;;;;19.95;11.90;;;;;;;35.33;28.85;97075.66;6196298;28;20814;-69
2023/08/20 06:14:13;;;;;;;17.85;11.98;;;;;;;34.48;29.53;97072.13;6196426;28;20418;-70
2023/08/20 06:17:17;;;;;;;19.27;12.07;;;;;;;33.44;30.67;97064.94;6196180;28;20042;-70
2023/08/20 06:20:19;;;;;;;33.42;14.25;;;;;;;35.17;28.79;97070.00;6195443;28;20042;-70
2023/08/20 06:23:25;;;;;;;26.50;19.70;;;;;;;37.60;25.80;97070.19;6178922;28;20050;-69
2023/08/20 06:26:29;;;;;;;20.52;14.70;;;;;;;39.13;23.87;97075.94;6195702;28;20050;-71
2023/08/20 06:29:31;;;;;;;23.02;14.90;;;;;;;40.69;22.00;97062.00;6195772;28;20047;-71
2023/08/20 06:32:37;;;;;;;24.88;17.40;;;;;;;42.47;20.48;97061.88;6196441;28;20312;-71
2023/08/20 06:35:42;;;;;;;23.45;14.63;;;;;;;41.50;20.38;97054.88;6195755;28;20061;-69
2023/08/20 06:38:45;;;;;;;17.33;12.63;;;;;;;38.88;23.18;97051.22;6178182;28;20662;-70
2023/08/20 06:41:50;;;;;;;18.85;13.05;;;;;;;37.37;25.01;97050.28;6195399;28;20051;-71
2023/08/20 06:44:55;;;;;;;22.20;13.40;;;;;;;38.90;23.43;97054.50;6196025;28;20100;-70
2023/08/20 06:47:58;;;;;;;19.70;13.38;;;;;;;41.16;21.05;97054.94;6178995;28;20054;-71
2023/08/20 06:51:13;;;;;;;22.55;15.00;;;;;;;39.18;22.51;97050.31;6195878;28;20093;-70
2023/08/20 06:54:17;;;;;;;25.52;16.92;;;;;;;36.57;25.72;97046.69;6195842;28;20046;-71
2023/08/20 06:57:22;;;;;;;28.17;21.70;;;;;;;35.06;27.25;97038.09;6195049;28;20141;-70
2023/08/20 07:00:25;;;;;;;28.95;21.52;;;;;;;34.56;28.24;97038.94;6194954;28;20058;-70
2023/08/20 07:03:31;;;;;;;30.50;20.00;;;;;;;34.07;28.72;97033.19;6195718;28;20050;-70
2023/08/20 07:06:39;;;;;;;26.45;15.35;;;;;;;33.11;29.86;97028.22;6195626;28;20046;-72
2023/08/20 07:09:44;;;;;;;23.05;15.27;;;;;;;32.81;30.68;97022.88;6194999;28;20050;-71
2023/08/20 07:12:45;;;;;;;23.10;15.27;;;;;;;34.64;28.43;97013.94;6177789;28;20058;-70
2023/08/20 07:15:50;;;;;;;27.60;17.00;;;;;;;36.88;25.58;97017.59;6195524;28;20042;-70
2023/08/20 07:18:52;;;;;;;30.98;18.27;;;;;;;36.95;25.25;97014.63;6199396;28;20140;-71
2023/08/20 07:21:54;;;;;;;24.55;15.27;;;;;;;36.69;25.73;97021.84;6182992;28;20538;-70
2023/08/20 07:24:59;;;;;;;20.67;14.65;;;;;;;37.21;25.35;97021.09;6201071;28;20042;-70
2023/08/20 07:28:03;;;;;;;24.77;15.45;;;;;;;39.79;22.47;97028.09;6200359;28;20058;-70
2023/08/20 07:31:07;;;;;;;25.90;14.77;;;;;;;42.29;19.92;97016.47;6199537;28;20540;-70
2023/08/20 07:34:13;;;;;;;25.65;16.00;;;;;;;42.09;19.81;97022.34;6200200;28;20580;-70
2023/08/20 07:37:16;;;;;;;25.20;16.35;;;;;;;40.16;21.60;97022.09;6199631;28;20429;-72
2023/08/20 07:40:17;;;;;;;24.17;17.40;;;;;;;41.84;20.54;97029.88;6199568;28;20426;-70
2023/08/20 07:43:26;;;;;;;25.27;17.23;;;;;;;45.39;17.10;97030.66;6199901;28;20237;-71
2023/08/20 07:46:30;;;;;;;25.05;18.65;;;;;;;47.76;15.01;97036.53;6200183;28;20437;-71
2023/08/20 07:49:33;;;;;;;21.27;16.73;;;;;;;45.09;16.87;97023.97;6200282;28;20424;-72
2023/08/20 07:52:37;;;;;;;24.45;16.83;;;;;;;41.37;20.04;97012.19;6199741;28;20058;-70
2023/08/20 07:55:42;;;;;;;23.35;16.90;;;;;;;40.47;21.11;97010.84;6199131;28;20049;-71
2023/08/20 07:58:49;;;;;;;19.65;14.95;;;;;;;44.12;18.33;97008.59;6199666;28;20422;-71
2023/08/20 08:01:56;;;;;;;21.25;14.90;;;;;;;45.97;16.11;97017.56;6199845;28;20078;-70
2023/08/20 08:05:00;;;;;;;23.15;16.23;;;;;;;43.24;18.56;97003.25;6199869;28;20069;-70
2023/08/20 08:08:02;;;;;;;21.70;15.90;;;;;;;39.80;21.46;96996.69;6199035;28;20062;-71
2023/08/20 08:11:04;;;;;;;32.08;22.08;;;;;;;37.51;23.86;96988.34;6198458;28;20609;-72
2023/08/20 08:14:06;;;;;;;26.05;18.92;;;;;;;37.44;24.09;96984.97;6181075;28;20141;-72
2023/08/20 08:17:10;;;;;;;24.85;17.40;;;;;;;40.31;21.51;96979.00;6199641;28;20115;-71
2023/08/20 08:20:14;;;;;;;22.98;16.10;;;;;;;42.38;19.19;96995.38;6198769;28;20046;-71
2023/08/20 08:23:18;;;;;;;24.17;16.63;;;;;;;40.34;21.36;97000.47;6199162;28;20428;-70
2023/08/20 08:26:24;;;;;;;27.77;18.90;;;;;;;38.09;23.31;96990.13;6198670;28;20058;-70
2023/08/20 08:29:28;;;;;;;32.10;20.92;;;;;;;36.38;25.54;96972.28;6213093;28;20058;-70
2023/08/20 08:32:34;;;;;;;26.73;17.98;;;;;;;35.26;27.07;96978.19;6214029;28;20046;-70
2023/08/20 08:35:38;;;;;;;27.13;17.20;;;;;;;35.04;27.04;96986.34;6198799;28;20502;-70
2023/08/20 08:38:43;;;;;;;23.33;16.33;;;;;;;34.94;27.17;96979.94;6198890;28;20038;-70
2023/08/20 08:41:54;;;;;;;23.85;15.35;;;;;;;34.71;27.96;96981.81;6197519;28;20050;-71
2023/08/20 08:45:02;;;;;;;22.65;14.02;;;;;;;34.31;28.57;96977.34;6197983;28;20165;-71
2023/08/20 08:48:06;;;;;;;20.55;12.45;;;;;;;33.51;29.32;96972.84;6199183;28;20046;-71
2023/08/20 08:51:08;;;;;;;22.37;14.07;;;;;;;33.48;29.54;96967.88;6198192;28;20065;-71
2023/08/20 08:54:16;;;;;;;19.38;14.20;;;;;;;36.14;26.17;96967.13;6198557;28;20133;-70
2023/08/20 08:57:22;;;;;;;20.42;14.35;;;;;;;36.28;26.06;96969.44;6198398;28;20177;-71
2023/08/20 09:00:24;;;;;;;25.53;17.90;;;;;;;35.71;26.83;96968.88;6197553;28;20498;-70
2023/08/20 09:03:30;;;;;;;19.13;14.20;;;;;;;35.04;27.56;96958.19;6198087;28;20453;-69
2023/08/20 09:06:48;;;;;;;21.58;13.77;;;;;;;35.06;27.24;96964.28;6198129;28;20182;-70
2023/08/20 09:09:56;;;;;;;21.20;16.35;;;;;;;35.36;27.04;96957.50;6198413;28;20065;-70
2023/08/20 09:13:01;;;;;;;20.20;12.85;;;;;;;35.58;26.66;96963.81;6198122;28;20497;-69
2023/08/20 09:16:06;;;;;;;21.00;13.82;;;;;;;36.22;25.77;96965.00;6198544;28;20042;-70
2023/08/20 09:19:08;;;;;;;21.50;14.10;;;;;;;37.35;24.70;96966.56;6196747;28;20050;-71
2023/08/20 09:22:15;;;;;;;21.63;13.65;;;;;;;38.63;23.35;96973.09;6197915;28;20046;-70
2023/08/20 09:25:17;;;;;;;;;;;;;;;38.98;23.26;96974.16;6198839;28;20058;-69
2023/08/20 09:28:18;;;;;;;19.50;14.50;;;;;;;39.17;22.81;96969.69;6181311;28;19928;-70
2023/08/20 09:31:38;;;;;;;20.98;15.40;;;;;;;38.88;22.77;96965.94;6199552;28;20332;-69
2023/08/20 09:34:39;;;;;;;21.25;14.80;;;;;;;37.24;24.51;96968.44;6196829;28;20061;-70
2023/08/20 09:37:45;;;;;;;21.50;14.95;;;;;;;35.66;26.34;96952.41;6197524;28;20050;-70
2023/08/20 09:40:55;;;;;;;21.20;13.35;;;;;;;36.06;26.18;96970.34;6196413;28;20042;-70
2023/08/20 09:44:04;;;;;;;18.65;13.02;;;;;;;37.81;24.16;96956.53;6197557;28;20498;-70
2023/08/20 09:47:13;;;;;;;17.02;11.90;;;;;;;37.90;24.34;96965.88;6197637;28;20047;-71
2023/08/20 09:50:18;;;;;;;17.50;12.52;;;;;;;38.49;23.34;96953.59;6196595;28;20053;-69
2023/08/20 09:53:37;;;;;;;16.70;12.63;;;;;;;39.31;22.42;96960.88;6197238;28;20095;-71
2023/08/20 09:56:43;;;;;;;14.80;10.90;;;;;;;39.00;22.59;96960.94;6196706;28;20141;-70
2023/08/20 09:59:46;;;;;;;14.88;10.07;;;;;;;37.04;24.51;96958.19;6196433;28;20120;-71
2023/08/20 10:02:49;;;;;;;12.93;9.77;;;;;;;34.95;27.31;96943.31;6196224;28;20050;-70
2023/08/20 10:05:56;;;;;;;12.77;9.43;;;;;;;34.69;27.78;96944.88;6196766;28;20038;-70
2023/08/20 10:08:59;;;;;;;13.77;9.43;;;;;;;36.85;25.39;96949.56;6196442;28;20046;-70
2023/08/20 10:12:01;;;;;;;12.90;9.98;;;;;;;38.34;23.47;96943.41;6195830;28;20220;-70
2023/08/20 10:15:03;;;;;;;13.65;9.85;;;;;;;38.96;22.35;96940.63;6196415;28;20046;-71
2023/08/20 10:18:10;;;;;;;11.50;8.57;;;;;;;39.07;22.23;96939.47;6196285;28;20058;-71
2023/08/20 10:21:17;;;;;;;11.38;7.95;;;;;;;39.54;22.14;96940.91;6196638;28;20039;-70
2023/08/20 10:24:23;;;;;;;13.35;7.95;;;;;;;40.49;20.94;96936.94;6196472;28;20046;-71
2023/08/20 10:27:26;;;;;;;12.60;8.48;;;;;;;40.95;20.52;96927.38;6195967;28;20053;-70
2023/08/20 10:30:32;;;;;;;11.68;8.13;;;;;;;41.10;20.25;96935.50;6196470;28;20042;-70
2023/08/20 10:33:57;;;;;;;13.73;8.75;;;;;;;40.77;20.79;96931.72;6196062;28;20053;-69
2023/08/20 10:37:04;;;;;;;11.13;7.55;;;;;;;39.88;21.38;96937.41;6196488;28;20502;-70
2023/08/20 10:40:06;;;;;;;10.07;7.38;;;;;;;39.02;22.26;96926.53;6195566;28;20042;-70
2023/08/20 10:43:10;;;;;;;12.45;8.43;;;;;;;38.60;23.01;96918.66;6195999;28;20046;-70
2023/08/20 10:46:18;;;;;;;10.40;7.80;;;;;;;38.52;22.94;96919.22;6195930;28;20046;-72
2023/08/20 10:49:21;;;;;;;10.27;7.18;;;;;;;38.35;22.62;96917.56;6195261;28;20141;-69
2023/08/20 10:52:25;;;;;;;9.57;6.43;;;;;;;38.53;22.85;96904.38;6195619;28;20121;-72
2023/08/20 10:55:28;;;;;;;11.77;7.38;;;;;;;38.83;23.10;96906.22;6178275;28;20046;-71
2023/08/20 10:58:32;;;;;;;11.55;7.32;;;;;;;39.13;22.26;96894.31;6195992;28;20042;-70
2023/08/20 11:01:42;;;;;;;10.85;7.78;;;;;;;39.14;21.89;96895.13;6178590;28;20049;-70
2023/08/20 11:04:46;;;;;;;12.30;7.78;;;;;;;38.76;22.75;96890.03;6195877;28;20054;-70
2023/08/20 11:07:53;;;;;;;12.50;7.55;;;;;;;38.41;22.70;96883.50;6195907;28;20053;-71
2023/08/20 11:10:54;;;;;;;13.40;7.05;;;;;;;37.46;24.10;96877.69;6195720;28;20096;-70
2023/08/20 11:14:11;;;;;;;10.27;6.53;;;;;;;36.71;24.79;96874.38;6195789;28;20046;-71
2023/08/20 11:17:16;;;;;;;10.10;7.25;;;;;;;37.36;23.95;96872.16;6195855;28;20042;-69
2023/08/20 11:20:23;;;;;;;14.38;7.82;;;;;;;37.72;23.43;96867.56;6195634;28;20046;-70
2023/08/20 11:23:28;;;;;;;12.93;7.60;;;;;;;37.86;23.68;96865.94;6195674;28;20089;-71
2023/08/20 11:26:31;;;;;;;13.27;7.93;;;;;;;37.85;23.53;96869.78;6195435;28;20134;-70
2023/08/20 11:29:36;;;;;;;13.32;7.55;;;;;;;38.01;23.65;96872.53;6194766;28;20461;-71
2023/08/20 11:32:42;;;;;;;11.65;8.02;;;;;;;37.97;23.80;96872.28;6194569;28;20050;-70
2023/08/20 11:35:45;;;;;;;11.43;7.90;;;;;;;37.88;23.53;96871.97;6195016;28;20121;-71
2023/08/20 11:38:55;;;;;;;13.85;8.10;;;;;;;37.33;24.47;96868.03;6195638;28;20402;-70
2023/08/20 11:41:59;;;;;;;8.35;6.72;;;;;;;36.62;24.86;96858.44;6195364;28;20054;-71
2023/08/20 11:45:00;;;;;;;13.18;7.03;;;;;;;36.29;25.38;96845.88;6195524;28;20054;-72
2023/08/20 11:48:02;;;;;;;8.97;7.03;;;;;;;35.95;25.88;96848.06;6194901;28;20345;-71
2023/08/20 11:51:06;;;;;;;14.43;7.77;;;;;;;35.63;26.54;96837.16;6195058;28;20462;-71
2023/08/20 11:54:12;;;;;;;10.20;7.07;;;;;;;35.59;26.24;96823.19;6194739;28;20038;-71
2023/08/20 11:57:21;;;;;;;13.48;7.30;;;;;;;35.88;26.09;96825.59;6177830;28;20137;-71
2023/08/20 12:00:28;;;;;;;12.93;8.00;;;;;;;35.83;25.97;96829.09;6194974;28;20502;-70
2023/08/20 12:03:32;;;;;;;12.50;7.63;;;;;;;35.85;26.28;96820.63;6195925;28;20042;-70
2023/08/20 12:06:42;;;;;;;14.25;8.38;;;;;;;35.31;26.96;96819.59;6200051;28;20046;-70
2023/08/20 12:09:48;;;;;;;10.20;7.82;;;;;;;34.94;27.01;96816.72;6199066;28;20509;-71
2023/08/20 12:12:53;;;;;;;12.32;9.13;;;;;;;34.62;27.28;96814.72;6181171;28;20054;-69
2023/08/20 12:15:59;;;;;;;11.88;8.38;;;;;;;33.87;28.18;96785.22;6199476;28;20517;-70
2023/08/20 12:19:09;;;;;;;13.77;9.45;;;;;;;33.20;29.61;96797.72;6198211;28;20406;-71
2023/08/20 12:22:13;;;;;;;13.07;8.23;;;;;;;33.18;29.59;96793.59;6198987;28;20046;-69
2023/08/20 12:25:14;;;;;;;13.60;8.82;;;;;;;33.35;29.67;96783.56;6198847;28;20524;-72
2023/08/20 12:28:18;;;;;;;14.50;8.48;;;;;;;33.31;29.48;96793.28;6198798;28;20050;-71
2023/08/20 12:31:23;;;;;;;15.07;8.23;;;;;;;33.12;29.92;96786.41;6199146;28;20050;-70
2023/08/20 12:34:29;;;;;;;14.73;8.80;;;;;;;32.77;29.92;96776.47;6198786;28;20137;-70
2023/08/20 12:37:32;;;;;;;14.57;8.73;;;;;;;32.18;31.25;96785.56;6199501;28;20696;-70
2023/08/20 12:40:36;;;;;;;11.07;8.77;;;;;;;31.72;32.13;96787.25;6198686;28;20137;-71
2023/08/20 12:43:41;;;;;;;13.82;8.75;;;;;;;31.21;32.63;96785.94;6198576;28;20184;-71
2023/08/20 12:46:46;;;;;;;13.63;8.43;;;;;;;31.11;32.52;96785.69;6198721;28;20173;-69
2023/08/20 12:49:52;;;;;;;10.88;8.13;;;;;;;31.30;32.24;96787.25;6198327;28;20493;-71
2023/08/20 12:52:57;;;;;;;12.10;8.82;;;;;;;31.23;32.42;96781.13;6198562;28;20046;-71
2023/08/20 12:56:02;;;;;;;12.13;8.52;;;;;;;31.28;32.60;96778.53;6198540;28;20173;-71
2023/08/20 12:59:08;;;;;;;13.43;8.45;;;;;;;31.34;32.27;96779.50;6198450;28;20189;-71
2023/08/20 13:02:12;;;;;;;12.20;8.00;;;;;;;31.51;31.83;96774.22;6198274;28;20085;-71
2023/08/20 13:05:16;;;;;;;15.00;8.18;;;;;;;31.44;31.91;96781.66;6197983;28;20133;-71
2023/08/20 13:08:20;;;;;;;12.35;7.88;;;;;;;31.18;32.79;96767.41;6198224;28;20356;-70
2023/08/20 13:11:27;;;;;;;13.82;8.32;;;;;;;31.04;32.43;96763.22;6198015;28;20197;-72
2023/08/20 13:14:30;;;;;;;11.88;7.90;;;;;;;30.69;33.26;96763.91;6197443;28;20085;-71
2023/08/20 13:17:34;;;;;;;8.70;6.43;;;;;;;30.19;34.33;96761.38;6197889;28;20507;-71
2023/08/20 13:20:38;;;;;;;11.25;7.20;;;;;;;29.76;34.99;96767.66;6197646;28;20188;-70
2023/08/20 13:23:44;;;;;;;17.20;13.02;;;;;;;29.31;35.95;96759.69;6197509;28;20196;-71
2023/08/20 13:26:48;;;;;;;13.70;9.00;;;;;;;29.00;36.27;96747.78;6197527;28;20097;-71
2023/08/20 13:29:55;;;;;;;12.93;9.18;;;;;;;28.78;36.55;96749.19;6197214;28;20042;-71
2023/08/20 13:33:00;;;;;;;13.10;9.05;;;;;;;28.57;36.85;96737.66;6197066;28;20612;-71
2023/08/20 13:36:04;;;;;;;17.30;9.15;;;;;;;28.47;37.20;96737.28;6197290;28;20042;-70
2023/08/20 13:39:07;;;;;;;13.25;7.85;;;;;;;28.31;37.61;96732.31;6197452;28;20136;-70
2023/08/20 13:42:12;;;;;;;14.93;8.55;;;;;;;28.07;37.95;96732.00;6197166;28;20101;-72
2023/08/20 13:45:17;;;;;;;14.02;8.43;;;;;;;27.98;38.16;96727.88;6197226;28;20046;-71
2023/08/20 13:48:22;;;;;;;15.55;9.15;;;;;;;27.86;38.28;96735.00;6197111;28;20050;-71
2023/08/20 13:51:26;;;;;;;14.55;8.27;;;;;;;27.69;38.66;96727.31;6179249;28;20200;-70
2023/08/20 13:54:32;;;;;;;12.40;7.60;;;;;;;27.67;38.80;96726.69;6196980;28;20099;-70
2023/08/20 13:57:36;;;;;;;14.13;8.50;;;;;;;27.70;38.71;96726.25;6197117;28;20073;-71
2023/08/20 14:00:42;;;;;;;13.20;8.02;;;;;;;27.71;38.70;96721.69;6197003;28;20076;-71
2023/08/20 14:03:47;;;;;;;14.77;7.75;;;;;;;27.63;38.84;96717.34;6196749;28;20093;-71
2023/08/20 14:06:52;;;;;;;16.75;9.18;;;;;;;27.44;39.24;96720.91;6197282;28;20042;-69
2023/08/20 14:09:57;;;;;;;16.67;11.73;;;;;;;27.19;39.70;96718.84;6178926;28;20125;-70
2023/08/20 14:13:01;;;;;;;14.30;8.35;;;;;;;26.90;40.57;96709.25;6178959;28;20093;-70
2023/08/20 14:16:06;;;;;;;10.68;7.65;;;;;;;26.67;41.15;96712.34;6195221;28;20468;-71
2023/08/20 14:19:10;;;;;;;13.00;7.00;;;;;;;26.46;41.50;96713.28;6194686;28;20111;-71